sensor_id;sensor_type;location;lat;lon;timestamp;pressure;altitude;pressure_sealevel;temperature
73894;BMP280;62699;50.534;12.784;2022-08-11T00:01:04;97314.56;;;15.99
73894;BMP280;62699;50.534;12.784;2022-08-11T00:06:34;97306.44;;;15.58
73894;BMP280;62699;50.534;12.784;2022-08-11T00:11:55;97299.13;;;15.48
73894;BMP280;62699;50.534;12.784;2022-08-11T00:17:15;97297.28;;;15.26
73894;BMP280;62699;50.534;12.784;2022-08-11T00:22:38;97292.72;;;15.45
73894;BMP280;62699;50.534;12.784;2022-08-11T00:27:57;97299.22;;;15.72
73894;BMP280;62699;50.534;12.784;2022-08-11T00:33:17;97306.28;;;15.81
73894;BMP280;62699;50.534;12.784;2022-08-11T00:38:40;97290.44;;;15.55
73894;BMP280;62699;50.534;12.784;2022-08-11T00:44:11;97300.66;;;15.43
73894;BMP280;62699;50.534;12.784;2022-08-11T01:53:25;97292.16;;;14.37
73894;BMP280;62699;50.534;12.784;2022-08-11T02:05:07;97283.84;;;14.02
73894;BMP280;62699;50.534;12.784;2022-08-11T02:10:57;97281.56;;;13.33
73894;BMP280;62699;50.534;12.784;2022-08-11T02:17:12;97290.22;;;13.54
73894;BMP280;62699;50.534;12.784;2022-08-11T02:23:22;97291.91;;;13.29
73894;BMP280;62699;50.534;12.784;2022-08-11T02:34:50;97281.84;;;13.52
73894;BMP280;62699;50.534;12.784;2022-08-11T02:40:27;97277.81;;;13.09
73894;BMP280;62699;50.534;12.784;2022-08-11T02:45:58;97274.34;;;13.03
73894;BMP280;62699;50.534;12.784;2022-08-11T03:20:44;97281.16;;;12.93
73894;BMP280;62699;50.534;12.784;2022-08-11T03:31:22;97288.06;;;12.09
73894;BMP280;62699;50.534;12.784;2022-08-11T03:59:27;97295.97;;;12.60
73894;BMP280;62699;50.534;12.784;2022-08-11T04:05:12;97294.16;;;12.77
73894;BMP280;62699;50.534;12.784;2022-08-11T04:11:03;97288.75;;;12.83
73894;BMP280;62699;50.534;12.784;2022-08-11T04:16:46;97290.44;;;12.75
73894;BMP280;62699;50.534;12.784;2022-08-11T04:22:36;97295.56;;;12.67
73894;BMP280;62699;50.534;12.784;2022-08-11T04:57:16;97276.66;;;13.38
73894;BMP280;62699;50.534;12.784;2022-08-11T05:15:04;97279.34;;;14.43
73894;BMP280;62699;50.534;12.784;2022-08-11T05:20:49;97286.63;;;16.71
73894;BMP280;62699;50.534;12.784;2022-08-11T05:26:29;97286.88;;;21.87
73894;BMP280;62699;50.534;12.784;2022-08-11T05:32:16;97298.84;;;25.33
73894;BMP280;62699;50.534;12.784;2022-08-11T05:37:55;97293.13;;;27.36
73894;BMP280;62699;50.534;12.784;2022-08-11T05:43:40;97294.06;;;28.84
73894;BMP280;62699;50.534;12.784;2022-08-11T05:49:19;97282.88;;;29.05
73894;BMP280;62699;50.534;12.784;2022-08-11T05:55:06;97301.06;;;29.93
73894;BMP280;62699;50.534;12.784;2022-08-11T06:00:45;97287.31;;;30.34
73894;BMP280;62699;50.534;12.784;2022-08-11T06:06:07;97276.28;;;31.73
73894;BMP280;62699;50.534;12.784;2022-08-11T06:11:27;97281.38;;;32.24
73894;BMP280;62699;50.534;12.784;2022-08-11T06:16:48;97284.69;;;30.10
73894;BMP280;62699;50.534;12.784;2022-08-11T06:22:11;97300.25;;;32.10
73894;BMP280;62699;50.534;12.784;2022-08-11T06:27:33;97293.56;;;32.79
73894;BMP280;62699;50.534;12.784;2022-08-11T06:32:53;97300.94;;;32.88
73894;BMP280;62699;50.534;12.784;2022-08-11T06:45:03;97301.72;;;34.51
73894;BMP280;62699;50.534;12.784;2022-08-11T06:50:07;97301.63;;;34.88
73894;BMP280;62699;50.534;12.784;2022-08-11T06:55:48;97293.31;;;32.73
73894;BMP280;62699;50.534;12.784;2022-08-11T07:01:56;97293.75;;;31.90
73894;BMP280;62699;50.534;12.784;2022-08-11T07:13:15;97288.69;;;34.01
73894;BMP280;62699;50.534;12.784;2022-08-11T07:19:01;97282.34;;;34.57
73894;BMP280;62699;50.534;12.784;2022-08-11T07:24:43;97282.72;;;34.48
73894;BMP280;62699;50.534;12.784;2022-08-11T07:30:23;97286.44;;;35.84
73894;BMP280;62699;50.534;12.784;2022-08-11T07:35:48;97277.38;;;32.76
73894;BMP280;62699;50.534;12.784;2022-08-11T07:41:13;97273.16;;;35.16
73894;BMP280;62699;50.534;12.784;2022-08-11T07:46:46;97276.19;;;35.69
73894;BMP280;62699;50.534;12.784;2022-08-11T07:52:28;97265.47;;;35.16
73894;BMP280;62699;50.534;12.784;2022-08-11T07:57:52;97256.06;;;34.45
73894;BMP280;62699;50.534;12.784;2022-08-11T08:03:32;97264.69;;;35.59
73894;BMP280;62699;50.534;12.784;2022-08-11T08:09:12;97263.69;;;33.68
73894;BMP280;62699;50.534;12.784;2022-08-11T08:14:51;97269.50;;;33.74
73894;BMP280;62699;50.534;12.784;2022-08-11T08:20:41;97263.72;;;33.50
73894;BMP280;62699;50.534;12.784;2022-08-11T08:26:05;97252.28;;;33.99
73894;BMP280;62699;50.534;12.784;2022-08-11T08:31:46;97250.69;;;33.39
73894;BMP280;62699;50.534;12.784;2022-08-11T08:37:07;97254.16;;;31.19
73894;BMP280;62699;50.534;12.784;2022-08-11T08:42:31;97254.22;;;32.09
73894;BMP280;62699;50.534;12.784;2022-08-11T08:47:56;97240.78;;;31.45
73894;BMP280;62699;50.534;12.784;2022-08-11T08:53:29;97241.13;;;30.54
73894;BMP280;62699;50.534;12.784;2022-08-11T08:58:50;97238.00;;;30.34
73894;BMP280;62699;50.534;12.784;2022-08-11T09:04:12;97247.81;;;30.49
73894;BMP280;62699;50.534;12.784;2022-08-11T09:09:32;97235.38;;;29.97
73894;BMP280;62699;50.534;12.784;2022-08-11T09:14:52;97233.69;;;29.42
73894;BMP280;62699;50.534;12.784;2022-08-11T09:20:25;97229.66;;;29.57
73894;BMP280;62699;50.534;12.784;2022-08-11T09:25:44;97222.97;;;29.00
73894;BMP280;62699;50.534;12.784;2022-08-11T09:31:22;97227.81;;;28.76
73894;BMP280;62699;50.534;12.784;2022-08-11T09:36:43;97223.56;;;28.63
73894;BMP280;62699;50.534;12.784;2022-08-11T09:42:23;97216.72;;;27.10
73894;BMP280;62699;50.534;12.784;2022-08-11T09:48:03;97214.06;;;28.90
73894;BMP280;62699;50.534;12.784;2022-08-11T09:53:26;97213.75;;;29.20
73894;BMP280;62699;50.534;12.784;2022-08-11T09:58:46;97213.06;;;29.70
73894;BMP280;62699;50.534;12.784;2022-08-11T10:04:12;97203.75;;;29.04
73894;BMP280;62699;50.534;12.784;2022-08-11T10:09:51;97198.00;;;29.87
73894;BMP280;62699;50.534;12.784;2022-08-11T10:15:17;97191.84;;;29.63
73894;BMP280;62699;50.534;12.784;2022-08-11T10:26:59;97183.94;;;27.38
73894;BMP280;62699;50.534;12.784;2022-08-11T10:32:26;97175.50;;;28.47
73894;BMP280;62699;50.534;12.784;2022-08-11T10:38:04;97174.50;;;28.89
73894;BMP280;62699;50.534;12.784;2022-08-11T10:43:24;97166.34;;;28.56
73894;BMP280;62699;50.534;12.784;2022-08-11T10:48:43;97155.69;;;29.24
73894;BMP280;62699;50.534;12.784;2022-08-11T10:54:04;97150.19;;;28.76
73894;BMP280;62699;50.534;12.784;2022-08-11T10:59:42;97155.41;;;29.96
73894;BMP280;62699;50.534;12.784;2022-08-11T11:05:20;97144.78;;;31.01
73894;BMP280;62699;50.534;12.784;2022-08-11T11:10:42;97142.53;;;29.75
73894;BMP280;62699;50.534;12.784;2022-08-11T11:16:02;97133.34;;;29.34
73894;BMP280;62699;50.534;12.784;2022-08-11T11:21:40;97154.84;;;29.22
73894;BMP280;62699;50.534;12.784;2022-08-11T11:27:09;97123.44;;;30.63
73894;BMP280;62699;50.534;12.784;2022-08-11T11:38:17;97148.59;;;30.38
73894;BMP280;62699;50.534;12.784;2022-08-11T11:43:37;97125.56;;;29.83
73894;BMP280;62699;50.534;12.784;2022-08-11T11:48:57;97123.28;;;30.32
73894;BMP280;62699;50.534;12.784;2022-08-11T11:54:29;97124.25;;;29.20
73894;BMP280;62699;50.534;12.784;2022-08-11T11:59:50;97115.19;;;29.83
73894;BMP280;62699;50.534;12.784;2022-08-11T12:05:33;97125.38;;;29.79
73894;BMP280;62699;50.534;12.784;2022-08-11T12:10:59;97107.50;;;29.82
73894;BMP280;62699;50.534;12.784;2022-08-11T12:16:40;97105.09;;;30.58
73894;BMP280;62699;50.534;12.784;2022-08-11T12:22:02;97098.38;;;30.90
73894;BMP280;62699;50.534;12.784;2022-08-11T12:27:40;97082.22;;;31.31
73894;BMP280;62699;50.534;12.784;2022-08-11T12:33:00;97068.09;;;31.12
73894;BMP280;62699;50.534;12.784;2022-08-11T12:38:20;97088.66;;;30.62
73894;BMP280;62699;50.534;12.784;2022-08-11T12:43:42;97071.63;;;30.69
73894;BMP280;62699;50.534;12.784;2022-08-11T12:49:22;97084.56;;;31.37
73894;BMP280;62699;50.534;12.784;2022-08-11T12:55:08;97073.56;;;31.25
73894;BMP280;62699;50.534;12.784;2022-08-11T13:00:30;97054.03;;;31.23
73894;BMP280;62699;50.534;12.784;2022-08-11T13:06:10;97049.25;;;32.21
73894;BMP280;62699;50.534;12.784;2022-08-11T13:11:30;97042.00;;;31.50
73894;BMP280;62699;50.534;12.784;2022-08-11T13:17:10;97051.44;;;30.40
73894;BMP280;62699;50.534;12.784;2022-08-11T13:22:43;97034.53;;;31.54
73894;BMP280;62699;50.534;12.784;2022-08-11T13:28:06;97031.53;;;30.74
73894;BMP280;62699;50.534;12.784;2022-08-11T13:33:25;97027.09;;;31.28
73894;BMP280;62699;50.534;12.784;2022-08-11T13:38:46;97030.41;;;30.50
73894;BMP280;62699;50.534;12.784;2022-08-11T13:44:12;97032.91;;;30.31
73894;BMP280;62699;50.534;12.784;2022-08-11T13:49:39;97027.84;;;30.27
73894;BMP280;62699;50.534;12.784;2022-08-11T13:54:58;97016.25;;;31.05
73894;BMP280;62699;50.534;12.784;2022-08-11T14:00:19;97022.31;;;30.70
73894;BMP280;62699;50.534;12.784;2022-08-11T14:05:41;97024.66;;;31.83
73894;BMP280;62699;50.534;12.784;2022-08-11T14:11:03;97018.75;;;29.84
73894;BMP280;62699;50.534;12.784;2022-08-11T14:16:43;97019.69;;;30.45
73894;BMP280;62699;50.534;12.784;2022-08-11T14:22:04;97003.81;;;31.21
73894;BMP280;62699;50.534;12.784;2022-08-11T14:27:26;97005.41;;;30.66
73894;BMP280;62699;50.534;12.784;2022-08-11T14:32:49;97000.19;;;30.15
73894;BMP280;62699;50.534;12.784;2022-08-11T14:38:10;96991.09;;;29.86
73894;BMP280;62699;50.534;12.784;2022-08-11T14:43:29;96989.63;;;29.58
73894;BMP280;62699;50.534;12.784;2022-08-11T14:49:09;96986.03;;;29.55
73894;BMP280;62699;50.534;12.784;2022-08-11T14:54:30;96984.09;;;30.12
73894;BMP280;62699;50.534;12.784;2022-08-11T15:00:12;96975.97;;;29.09
73894;BMP280;62699;50.534;12.784;2022-08-11T15:05:33;96982.25;;;29.10
73894;BMP280;62699;50.534;12.784;2022-08-11T15:10:53;96971.66;;;29.72
73894;BMP280;62699;50.534;12.784;2022-08-11T15:16:13;96983.41;;;28.93
73894;BMP280;62699;50.534;12.784;2022-08-11T15:21:51;96963.75;;;28.75
73894;BMP280;62699;50.534;12.784;2022-08-11T15:27:31;96960.75;;;28.71
73894;BMP280;62699;50.534;12.784;2022-08-11T15:33:12;96960.00;;;28.71
73894;BMP280;62699;50.534;12.784;2022-08-11T15:38:54;96958.41;;;28.54
73894;BMP280;62699;50.534;12.784;2022-08-11T15:44:16;96949.34;;;28.91
73894;BMP280;62699;50.534;12.784;2022-08-11T15:49:57;96946.06;;;27.84
73894;BMP280;62699;50.534;12.784;2022-08-11T15:55:20;96932.13;;;27.82
73894;BMP280;62699;50.534;12.784;2022-08-11T16:00:42;96942.97;;;27.55
73894;BMP280;62699;50.534;12.784;2022-08-11T16:06:21;96937.66;;;27.35
73894;BMP280;62699;50.534;12.784;2022-08-11T16:11:41;96933.66;;;27.27
73894;BMP280;62699;50.534;12.784;2022-08-11T16:17:03;96932.22;;;27.14
73894;BMP280;62699;50.534;12.784;2022-08-11T16:22:31;96924.34;;;26.76
73894;BMP280;62699;50.534;12.784;2022-08-11T16:27:59;96933.63;;;26.59
73894;BMP280;62699;50.534;12.784;2022-08-11T16:33:27;96920.41;;;26.58
73894;BMP280;62699;50.534;12.784;2022-08-11T16:38:48;96916.75;;;26.44
73894;BMP280;62699;50.534;12.784;2022-08-11T16:44:13;96916.63;;;26.21
73894;BMP280;62699;50.534;12.784;2022-08-11T16:49:53;96910.84;;;26.17
73894;BMP280;62699;50.534;12.784;2022-08-11T16:55:14;96914.97;;;25.85
73894;BMP280;62699;50.534;12.784;2022-08-11T17:00:33;96914.31;;;25.96
73894;BMP280;62699;50.534;12.784;2022-08-11T17:05:53;96916.59;;;25.78
73894;BMP280;62699;50.534;12.784;2022-08-11T17:11:35;96913.69;;;26.07
73894;BMP280;62699;50.534;12.784;2022-08-11T17:17:25;96919.94;;;25.77
73894;BMP280;62699;50.534;12.784;2022-08-11T17:22:45;96904.72;;;25.45
73894;BMP280;62699;50.534;12.784;2022-08-11T17:28:49;96919.53;;;25.30
73894;BMP280;62699;50.534;12.784;2022-08-11T17:34:09;96909.44;;;25.14
73894;BMP280;62699;50.534;12.784;2022-08-11T17:39:49;96919.16;;;25.15
73894;BMP280;62699;50.534;12.784;2022-08-11T17:45:09;96916.56;;;24.98
73894;BMP280;62699;50.534;12.784;2022-08-11T17:50:50;96926.59;;;24.93
73894;BMP280;62699;50.534;12.784;2022-08-11T17:56:11;96934.00;;;24.71
73894;BMP280;62699;50.534;12.784;2022-08-11T18:01:51;96937.19;;;24.58
73894;BMP280;62699;50.534;12.784;2022-08-11T18:07:12;96945.50;;;24.03
73894;BMP280;62699;50.534;12.784;2022-08-11T18:12:52;96959.91;;;23.75
73894;BMP280;62699;50.534;12.784;2022-08-11T18:18:31;96955.31;;;23.33
73894;BMP280;62699;50.534;12.784;2022-08-11T18:24:11;96957.91;;;23.14
73894;BMP280;62699;50.534;12.784;2022-08-11T18:29:51;96963.75;;;23.18
73894;BMP280;62699;50.534;12.784;2022-08-11T18:35:31;96966.34;;;23.43
73894;BMP280;62699;50.534;12.784;2022-08-11T18:41:10;96973.78;;;23.50
73894;BMP280;62699;50.534;12.784;2022-08-11T18:46:50;96976.25;;;23.56
73894;BMP280;62699;50.534;12.784;2022-08-11T18:52:30;96983.88;;;23.47
73894;BMP280;62699;50.534;12.784;2022-08-11T18:58:12;96994.69;;;22.84
73894;BMP280;62699;50.534;12.784;2022-08-11T19:03:52;97005.09;;;22.69
73894;BMP280;62699;50.534;12.784;2022-08-11T19:09:34;97007.66;;;22.50
73894;BMP280;62699;50.534;12.784;2022-08-11T19:15:14;97004.31;;;22.34
73894;BMP280;62699;50.534;12.784;2022-08-11T19:20:55;97010.97;;;22.23
73894;BMP280;62699;50.534;12.784;2022-08-11T19:26:35;97010.06;;;21.72
73894;BMP280;62699;50.534;12.784;2022-08-11T19:32:16;97012.19;;;21.33
73894;BMP280;62699;50.534;12.784;2022-08-11T19:37:57;97014.72;;;21.46
73894;BMP280;62699;50.534;12.784;2022-08-11T19:43:37;97016.53;;;21.51
73894;BMP280;62699;50.534;12.784;2022-08-11T19:49:17;97012.66;;;21.54
73894;BMP280;62699;50.534;12.784;2022-08-11T19:54:56;97017.69;;;21.26
73894;BMP280;62699;50.534;12.784;2022-08-11T20:00:34;97018.13;;;20.92
73894;BMP280;62699;50.534;12.784;2022-08-11T20:06:15;97022.38;;;20.32
73894;BMP280;62699;50.534;12.784;2022-08-11T20:11:55;97027.72;;;19.79
73894;BMP280;62699;50.534;12.784;2022-08-11T20:17:36;97028.19;;;19.63
73894;BMP280;62699;50.534;12.784;2022-08-11T20:23:16;97030.56;;;19.30
73894;BMP280;62699;50.534;12.784;2022-08-11T20:28:56;97028.47;;;19.44
73894;BMP280;62699;50.534;12.784;2022-08-11T20:34:35;97036.03;;;19.30
73894;BMP280;62699;50.534;12.784;2022-08-11T20:40:16;97044.06;;;19.28
73894;BMP280;62699;50.534;12.784;2022-08-11T20:45:54;97035.47;;;19.60
73894;BMP280;62699;50.534;12.784;2022-08-11T20:51:34;97047.97;;;19.91
73894;BMP280;62699;50.534;12.784;2022-08-11T20:57:15;97043.44;;;20.01
73894;BMP280;62699;50.534;12.784;2022-08-11T21:02:55;97058.97;;;19.99
73894;BMP280;62699;50.534;12.784;2022-08-11T21:08:35;97060.69;;;19.81
73894;BMP280;62699;50.534;12.784;2022-08-11T21:14:15;97059.81;;;19.51
73894;BMP280;62699;50.534;12.784;2022-08-11T21:19:55;97063.47;;;18.48
73894;BMP280;62699;50.534;12.784;2022-08-11T21:25:40;97063.53;;;18.55
73894;BMP280;62699;50.534;12.784;2022-08-11T21:31:20;97063.97;;;18.46
73894;BMP280;62699;50.534;12.784;2022-08-11T21:37:00;97067.91;;;18.38
73894;BMP280;62699;50.534;12.784;2022-08-11T21:42:39;97072.53;;;18.91
73894;BMP280;62699;50.534;12.784;2022-08-11T21:48:19;97068.44;;;18.36
73894;BMP280;62699;50.534;12.784;2022-08-11T21:53:59;97078.94;;;18.19
73894;BMP280;62699;50.534;12.784;2022-08-11T21:59:47;97071.28;;;17.44
73894;BMP280;62699;50.534;12.784;2022-08-11T22:05:27;97068.28;;;16.90
73894;BMP280;62699;50.534;12.784;2022-08-11T22:11:06;97064.16;;;17.28
73894;BMP280;62699;50.534;12.784;2022-08-11T22:16:44;97065.03;;;17.62
73894;BMP280;62699;50.534;12.784;2022-08-11T22:22:22;97067.59;;;17.68
73894;BMP280;62699;50.534;12.784;2022-08-11T22:28:00;97071.63;;;18.14
73894;BMP280;62699;50.534;12.784;2022-08-11T22:33:40;97066.16;;;18.27
73894;BMP280;62699;50.534;12.784;2022-08-11T22:39:18;97064.31;;;18.09
73894;BMP280;62699;50.534;12.784;2022-08-11T22:44:56;97070.63;;;17.91
73894;BMP280;62699;50.534;12.784;2022-08-11T22:50:38;97071.59;;;17.80
73894;BMP280;62699;50.534;12.784;2022-08-11T22:56:17;97070.69;;;18.11
73894;BMP280;62699;50.534;12.784;2022-08-11T23:01:55;97056.34;;;17.98
73894;BMP280;62699;50.534;12.784;2022-08-11T23:07:35;97062.47;;;17.91
73894;BMP280;62699;50.534;12.784;2022-08-11T23:13:14;97057.81;;;17.99
73894;BMP280;62699;50.534;12.784;2022-08-11T23:18:53;97061.66;;;17.82
73894;BMP280;62699;50.534;12.784;2022-08-11T23:24:32;97051.19;;;17.47
73894;BMP280;62699;50.534;12.784;2022-08-11T23:30:11;97054.44;;;17.33
73894;BMP280;62699;50.534;12.784;2022-08-11T23:35:50;97062.28;;;16.78
73894;BMP280;62699;50.534;12.784;2022-08-11T23:41:29;97050.19;;;16.10
73894;BMP280;62699;50.534;12.784;2022-08-11T23:47:07;97042.38;;;16.01
73894;BMP280;62699;50.534;12.784;2022-08-11T23:52:46;97047.56;;;15.37
73894;BMP280;62699;50.534;12.784;2022-08-11T23:58:25;97044.03;;;15.66
